sensor_id;sensor_type;location;lat;lon;timestamp;P1;durP1;ratioP1;P2;durP2;ratioP2
80411;SDS011;69749;42.684;23.360;2023-08-30T00:02:08;14.63;;;9.40;;
80411;SDS011;69749;42.684;23.360;2023-08-30T00:04:34;10.98;;;7.97;;
80411;SDS011;69749;42.684;23.360;2023-08-30T00:07:00;15.00;;;8.77;;
80411;SDS011;69749;42.684;23.360;2023-08-30T00:09:25;12.00;;;7.97;;
80411;SDS011;69749;42.684;23.360;2023-08-30T00:11:50;13.50;;;9.18;;
80411;SDS011;69749;42.684;23.360;2023-08-30T00:14:16;12.32;;;8.65;;
80411;SDS011;69749;42.684;23.360;2023-08-30T00:16:41;11.20;;;7.93;;
80411;SDS011;69749;42.684;23.360;2023-08-30T00:19:06;10.18;;;8.05;;
80411;SDS011;69749;42.684;23.360;2023-08-30T00:21:32;11.18;;;7.72;;
80411;SDS011;69749;42.684;23.360;2023-08-30T00:23:57;11.25;;;7.55;;
80411;SDS011;69749;42.684;23.360;2023-08-30T00:26:23;10.85;;;6.72;;
80411;SDS011;69749;42.684;23.360;2023-08-30T00:28:48;8.98;;;6.63;;
80411;SDS011;69749;42.684;23.360;2023-08-30T00:31:13;9.63;;;7.13;;
80411;SDS011;69749;42.684;23.360;2023-08-30T00:33:39;9.98;;;6.75;;
80411;SDS011;69749;42.684;23.360;2023-08-30T00:36:04;14.70;;;7.85;;
80411;SDS011;69749;42.684;23.360;2023-08-30T00:38:32;9.10;;;7.05;;
80411;SDS011;69749;42.684;23.360;2023-08-30T00:40:58;11.15;;;7.20;;
80411;SDS011;69749;42.684;23.360;2023-08-30T00:43:24;12.90;;;6.90;;
80411;SDS011;69749;42.684;23.360;2023-08-30T00:45:49;9.23;;;6.03;;
80411;SDS011;69749;42.684;23.360;2023-08-30T00:48:15;10.63;;;6.97;;
80411;SDS011;69749;42.684;23.360;2023-08-30T00:50:43;10.52;;;6.47;;
80411;SDS011;69749;42.684;23.360;2023-08-30T00:53:09;9.75;;;6.30;;
80411;SDS011;69749;42.684;23.360;2023-08-30T00:55:35;8.77;;;6.50;;
80411;SDS011;69749;42.684;23.360;2023-08-30T00:58:02;10.40;;;7.05;;
80411;SDS011;69749;42.684;23.360;2023-08-30T01:00:29;10.75;;;7.40;;
80411;SDS011;69749;42.684;23.360;2023-08-30T01:02:55;10.30;;;7.05;;
80411;SDS011;69749;42.684;23.360;2023-08-30T01:05:22;10.23;;;6.45;;
80411;SDS011;69749;42.684;23.360;2023-08-30T01:07:48;9.80;;;6.40;;
80411;SDS011;69749;42.684;23.360;2023-08-30T01:10:14;10.40;;;5.80;;
80411;SDS011;69749;42.684;23.360;2023-08-30T01:12:40;9.35;;;6.57;;
80411;SDS011;69749;42.684;23.360;2023-08-30T01:15:11;8.88;;;6.30;;
80411;SDS011;69749;42.684;23.360;2023-08-30T01:17:41;7.95;;;5.90;;
80411;SDS011;69749;42.684;23.360;2023-08-30T01:20:08;10.95;;;6.43;;
80411;SDS011;69749;42.684;23.360;2023-08-30T01:27:49;8.90;;;5.47;;
80411;SDS011;69749;42.684;23.360;2023-08-30T01:30:16;9.73;;;6.07;;
80411;SDS011;69749;42.684;23.360;2023-08-30T01:32:43;8.57;;;5.38;;
80411;SDS011;69749;42.684;23.360;2023-08-30T01:35:11;6.97;;;5.57;;
80411;SDS011;69749;42.684;23.360;2023-08-30T01:37:42;8.93;;;5.90;;
80411;SDS011;69749;42.684;23.360;2023-08-30T01:40:10;9.20;;;5.78;;
80411;SDS011;69749;42.684;23.360;2023-08-30T01:42:37;8.50;;;6.40;;
80411;SDS011;69749;42.684;23.360;2023-08-30T01:45:05;9.07;;;5.63;;
80411;SDS011;69749;42.684;23.360;2023-08-30T01:47:33;8.60;;;6.00;;
80411;SDS011;69749;42.684;23.360;2023-08-30T01:50:00;9.65;;;5.88;;
80411;SDS011;69749;42.684;23.360;2023-08-30T01:52:28;9.45;;;6.20;;
80411;SDS011;69749;42.684;23.360;2023-08-30T01:54:54;9.13;;;5.85;;
80411;SDS011;69749;42.684;23.360;2023-08-30T01:57:20;8.63;;;5.78;;
80411;SDS011;69749;42.684;23.360;2023-08-30T01:59:46;8.30;;;5.82;;
80411;SDS011;69749;42.684;23.360;2023-08-30T02:02:11;8.43;;;5.55;;
80411;SDS011;69749;42.684;23.360;2023-08-30T02:04:37;9.73;;;5.43;;
80411;SDS011;69749;42.684;23.360;2023-08-30T02:07:03;7.88;;;5.70;;
80411;SDS011;69749;42.684;23.360;2023-08-30T02:12:15;14.82;;;6.97;;
80411;SDS011;69749;42.684;23.360;2023-08-30T02:14:44;8.93;;;5.75;;
80411;SDS011;69749;42.684;23.360;2023-08-30T02:17:15;9.88;;;6.10;;
80411;SDS011;69749;42.684;23.360;2023-08-30T02:19:42;11.40;;;6.50;;
80411;SDS011;69749;42.684;23.360;2023-08-30T02:22:08;11.98;;;8.38;;
80411;SDS011;69749;42.684;23.360;2023-08-30T02:24:34;12.18;;;7.10;;
80411;SDS011;69749;42.684;23.360;2023-08-30T02:26:59;10.52;;;6.20;;
80411;SDS011;69749;42.684;23.360;2023-08-30T02:29:25;8.38;;;6.07;;
80411;SDS011;69749;42.684;23.360;2023-08-30T02:31:50;13.68;;;6.38;;
80411;SDS011;69749;42.684;23.360;2023-08-30T02:34:15;7.90;;;6.03;;
80411;SDS011;69749;42.684;23.360;2023-08-30T02:36:41;12.45;;;6.57;;
80411;SDS011;69749;42.684;23.360;2023-08-30T02:39:07;10.93;;;6.50;;
80411;SDS011;69749;42.684;23.360;2023-08-30T02:41:32;12.32;;;5.85;;
80411;SDS011;69749;42.684;23.360;2023-08-30T02:43:57;11.00;;;6.40;;
80411;SDS011;69749;42.684;23.360;2023-08-30T02:46:23;10.95;;;6.80;;
80411;SDS011;69749;42.684;23.360;2023-08-30T02:48:48;10.48;;;6.90;;
80411;SDS011;69749;42.684;23.360;2023-08-30T02:51:14;11.73;;;7.28;;
80411;SDS011;69749;42.684;23.360;2023-08-30T02:53:39;12.13;;;7.00;;
80411;SDS011;69749;42.684;23.360;2023-08-30T02:56:04;10.43;;;6.75;;
80411;SDS011;69749;42.684;23.360;2023-08-30T02:58:30;11.40;;;6.57;;
80411;SDS011;69749;42.684;23.360;2023-08-30T03:00:55;8.52;;;6.38;;
80411;SDS011;69749;42.684;23.360;2023-08-30T03:03:21;12.32;;;6.55;;
80411;SDS011;69749;42.684;23.360;2023-08-30T03:05:46;11.00;;;6.43;;
80411;SDS011;69749;42.684;23.360;2023-08-30T03:08:11;9.82;;;6.85;;
80411;SDS011;69749;42.684;23.360;2023-08-30T03:10:37;12.18;;;7.18;;
80411;SDS011;69749;42.684;23.360;2023-08-30T03:13:02;10.68;;;7.05;;
80411;SDS011;69749;42.684;23.360;2023-08-30T03:15:30;10.07;;;7.15;;
80411;SDS011;69749;42.684;23.360;2023-08-30T03:17:57;9.20;;;6.15;;
80411;SDS011;69749;42.684;23.360;2023-08-30T03:20:22;12.85;;;7.10;;
80411;SDS011;69749;42.684;23.360;2023-08-30T03:22:48;7.25;;;6.43;;
80411;SDS011;69749;42.684;23.360;2023-08-30T03:25:13;11.85;;;7.00;;
80411;SDS011;69749;42.684;23.360;2023-08-30T03:27:38;10.18;;;6.80;;
80411;SDS011;69749;42.684;23.360;2023-08-30T03:30:04;11.05;;;6.07;;
80411;SDS011;69749;42.684;23.360;2023-08-30T03:34:57;11.75;;;6.35;;
80411;SDS011;69749;42.684;23.360;2023-08-30T03:37:23;12.23;;;7.30;;
80411;SDS011;69749;42.684;23.360;2023-08-30T03:39:48;14.40;;;8.32;;
80411;SDS011;69749;42.684;23.360;2023-08-30T03:42:13;13.13;;;7.72;;
80411;SDS011;69749;42.684;23.360;2023-08-30T03:44:39;13.63;;;8.45;;
80411;SDS011;69749;42.684;23.360;2023-08-30T03:47:05;11.85;;;7.78;;
80411;SDS011;69749;42.684;23.360;2023-08-30T03:49:30;14.77;;;9.32;;
80411;SDS011;69749;42.684;23.360;2023-08-30T03:51:56;14.43;;;9.20;;
80411;SDS011;69749;42.684;23.360;2023-08-30T03:54:21;15.40;;;9.20;;
80411;SDS011;69749;42.684;23.360;2023-08-30T03:56:46;17.42;;;10.13;;
80411;SDS011;69749;42.684;23.360;2023-08-30T03:59:12;13.15;;;9.90;;
80411;SDS011;69749;42.684;23.360;2023-08-30T04:01:37;14.52;;;9.77;;
80411;SDS011;69749;42.684;23.360;2023-08-30T04:04:05;16.65;;;9.73;;
80411;SDS011;69749;42.684;23.360;2023-08-30T04:06:31;13.70;;;9.30;;
80411;SDS011;69749;42.684;23.360;2023-08-30T04:08:56;11.48;;;9.05;;
80411;SDS011;69749;42.684;23.360;2023-08-30T04:11:22;18.17;;;9.65;;
80411;SDS011;69749;42.684;23.360;2023-08-30T04:13:51;13.80;;;9.57;;
80411;SDS011;69749;42.684;23.360;2023-08-30T04:16:17;13.90;;;9.48;;
80411;SDS011;69749;42.684;23.360;2023-08-30T04:18:43;17.83;;;9.02;;
80411;SDS011;69749;42.684;23.360;2023-08-30T04:21:08;16.70;;;10.05;;
80411;SDS011;69749;42.684;23.360;2023-08-30T04:23:34;17.27;;;10.10;;
80411;SDS011;69749;42.684;23.360;2023-08-30T04:25:59;15.63;;;9.60;;
80411;SDS011;69749;42.684;23.360;2023-08-30T04:28:25;17.42;;;9.38;;
80411;SDS011;69749;42.684;23.360;2023-08-30T04:30:53;13.27;;;7.40;;
80411;SDS011;69749;42.684;23.360;2023-08-30T04:33:19;14.38;;;8.63;;
80411;SDS011;69749;42.684;23.360;2023-08-30T04:35:49;13.05;;;8.57;;
80411;SDS011;69749;42.684;23.360;2023-08-30T04:38:15;11.70;;;8.05;;
80411;SDS011;69749;42.684;23.360;2023-08-30T04:40:40;13.25;;;8.70;;
80411;SDS011;69749;42.684;23.360;2023-08-30T04:43:06;14.15;;;8.98;;
80411;SDS011;69749;42.684;23.360;2023-08-30T04:45:31;14.80;;;8.30;;
80411;SDS011;69749;42.684;23.360;2023-08-30T04:47:59;14.02;;;8.10;;
80411;SDS011;69749;42.684;23.360;2023-08-30T04:50:25;14.13;;;8.35;;
80411;SDS011;69749;42.684;23.360;2023-08-30T04:52:50;15.10;;;8.95;;
80411;SDS011;69749;42.684;23.360;2023-08-30T04:55:15;12.10;;;7.97;;
80411;SDS011;69749;42.684;23.360;2023-08-30T04:57:41;15.15;;;9.23;;
80411;SDS011;69749;42.684;23.360;2023-08-30T05:00:10;11.57;;;8.07;;
80411;SDS011;69749;42.684;23.360;2023-08-30T05:02:39;12.77;;;9.05;;
80411;SDS011;69749;42.684;23.360;2023-08-30T05:05:05;15.90;;;8.68;;
80411;SDS011;69749;42.684;23.360;2023-08-30T05:07:31;17.77;;;9.02;;
80411;SDS011;69749;42.684;23.360;2023-08-30T05:09:56;12.43;;;7.25;;
80411;SDS011;69749;42.684;23.360;2023-08-30T05:12:22;12.27;;;7.28;;
80411;SDS011;69749;42.684;23.360;2023-08-30T05:14:47;18.60;;;7.32;;
80411;SDS011;69749;42.684;23.360;2023-08-30T05:17:13;16.35;;;8.13;;
80411;SDS011;69749;42.684;23.360;2023-08-30T05:19:38;14.23;;;7.93;;
80411;SDS011;69749;42.684;23.360;2023-08-30T05:22:04;12.48;;;8.23;;
80411;SDS011;69749;42.684;23.360;2023-08-30T05:24:29;15.55;;;8.63;;
80411;SDS011;69749;42.684;23.360;2023-08-30T05:26:54;13.60;;;7.18;;
80411;SDS011;69749;42.684;23.360;2023-08-30T05:29:20;13.43;;;7.55;;
80411;SDS011;69749;42.684;23.360;2023-08-30T05:31:45;14.40;;;7.45;;
80411;SDS011;69749;42.684;23.360;2023-08-30T05:34:11;15.88;;;9.23;;
80411;SDS011;69749;42.684;23.360;2023-08-30T05:36:36;15.77;;;7.25;;
80411;SDS011;69749;42.684;23.360;2023-08-30T05:39:02;13.27;;;6.72;;
80411;SDS011;69749;42.684;23.360;2023-08-30T05:41:28;11.90;;;5.70;;
80411;SDS011;69749;42.684;23.360;2023-08-30T05:43:54;6.18;;;4.88;;
80411;SDS011;69749;42.684;23.360;2023-08-30T05:46:19;10.45;;;5.28;;
80411;SDS011;69749;42.684;23.360;2023-08-30T05:48:45;6.75;;;3.85;;
80411;SDS011;69749;42.684;23.360;2023-08-30T05:51:10;6.78;;;4.28;;
80411;SDS011;69749;42.684;23.360;2023-08-30T05:53:35;11.77;;;3.67;;
80411;SDS011;69749;42.684;23.360;2023-08-30T05:56:01;9.65;;;5.25;;
80411;SDS011;69749;42.684;23.360;2023-08-30T05:58:27;7.15;;;4.10;;
80411;SDS011;69749;42.684;23.360;2023-08-30T06:00:53;9.18;;;4.53;;
80411;SDS011;69749;42.684;23.360;2023-08-30T06:03:18;11.35;;;4.60;;
80411;SDS011;69749;42.684;23.360;2023-08-30T06:05:43;5.88;;;3.28;;
80411;SDS011;69749;42.684;23.360;2023-08-30T06:08:09;7.55;;;3.35;;
80411;SDS011;69749;42.684;23.360;2023-08-30T06:10:35;8.80;;;4.13;;
80411;SDS011;69749;42.684;23.360;2023-08-30T06:13:01;8.05;;;4.10;;
80411;SDS011;69749;42.684;23.360;2023-08-30T06:15:27;8.82;;;4.78;;
80411;SDS011;69749;42.684;23.360;2023-08-30T06:17:53;6.53;;;3.78;;
80411;SDS011;69749;42.684;23.360;2023-08-30T06:20:19;10.82;;;4.25;;
80411;SDS011;69749;42.684;23.360;2023-08-30T06:22:44;11.13;;;4.30;;
80411;SDS011;69749;42.684;23.360;2023-08-30T06:25:09;184.15;;;18.60;;
80411;SDS011;69749;42.684;23.360;2023-08-30T06:27:40;19.77;;;4.88;;
80411;SDS011;69749;42.684;23.360;2023-08-30T06:30:07;8.40;;;4.55;;
80411;SDS011;69749;42.684;23.360;2023-08-30T06:32:33;6.70;;;4.00;;
80411;SDS011;69749;42.684;23.360;2023-08-30T06:34:59;8.05;;;3.67;;
80411;SDS011;69749;42.684;23.360;2023-08-30T06:37:24;9.88;;;4.43;;
80411;SDS011;69749;42.684;23.360;2023-08-30T06:39:49;8.18;;;4.22;;
80411;SDS011;69749;42.684;23.360;2023-08-30T06:42:15;9.57;;;4.40;;
80411;SDS011;69749;42.684;23.360;2023-08-30T06:44:41;9.45;;;4.20;;
80411;SDS011;69749;42.684;23.360;2023-08-30T06:49:32;10.63;;;6.88;;
80411;SDS011;69749;42.684;23.360;2023-08-30T06:51:58;8.07;;;4.28;;
80411;SDS011;69749;42.684;23.360;2023-08-30T06:54:28;5.45;;;4.10;;
80411;SDS011;69749;42.684;23.360;2023-08-30T06:56:58;5.68;;;3.95;;
80411;SDS011;69749;42.684;23.360;2023-08-30T06:59:27;7.90;;;5.15;;
80411;SDS011;69749;42.684;23.360;2023-08-30T07:01:53;11.23;;;5.70;;
80411;SDS011;69749;42.684;23.360;2023-08-30T07:06:44;18.17;;;14.68;;
80411;SDS011;69749;42.684;23.360;2023-08-30T07:09:09;8.80;;;5.53;;
80411;SDS011;69749;42.684;23.360;2023-08-30T07:11:36;8.98;;;5.63;;
80411;SDS011;69749;42.684;23.360;2023-08-30T07:14:02;9.48;;;5.43;;
80411;SDS011;69749;42.684;23.360;2023-08-30T07:18:53;7.05;;;4.95;;
80411;SDS011;69749;42.684;23.360;2023-08-30T07:31:34;7.63;;;5.78;;
80411;SDS011;69749;42.684;23.360;2023-08-30T07:34:00;8.65;;;4.93;;
80411;SDS011;69749;42.684;23.360;2023-08-30T07:36:30;6.38;;;4.70;;
80411;SDS011;69749;42.684;23.360;2023-08-30T07:38:57;9.23;;;5.03;;
80411;SDS011;69749;42.684;23.360;2023-08-30T07:41:23;9.10;;;5.22;;
80411;SDS011;69749;42.684;23.360;2023-08-30T07:43:48;9.57;;;4.88;;
80411;SDS011;69749;42.684;23.360;2023-08-30T07:46:13;7.97;;;5.47;;
80411;SDS011;69749;42.684;23.360;2023-08-30T07:48:39;9.75;;;5.03;;
80411;SDS011;69749;42.684;23.360;2023-08-30T07:51:04;9.60;;;5.22;;
80411;SDS011;69749;42.684;23.360;2023-08-30T07:53:29;10.75;;;5.05;;
80411;SDS011;69749;42.684;23.360;2023-08-30T07:55:55;9.88;;;4.90;;
80411;SDS011;69749;42.684;23.360;2023-08-30T07:58:20;9.73;;;4.82;;
80411;SDS011;69749;42.684;23.360;2023-08-30T08:00:46;9.70;;;4.15;;
80411;SDS011;69749;42.684;23.360;2023-08-30T08:03:16;9.95;;;4.22;;
80411;SDS011;69749;42.684;23.360;2023-08-30T08:05:41;8.88;;;5.28;;
80411;SDS011;69749;42.684;23.360;2023-08-30T08:08:07;9.35;;;4.72;;
80411;SDS011;69749;42.684;23.360;2023-08-30T08:10:32;9.45;;;4.47;;
80411;SDS011;69749;42.684;23.360;2023-08-30T08:13:01;10.98;;;4.20;;
80411;SDS011;69749;42.684;23.360;2023-08-30T08:17:54;9.43;;;3.78;;
80411;SDS011;69749;42.684;23.360;2023-08-30T08:20:19;7.68;;;3.92;;
80411;SDS011;69749;42.684;23.360;2023-08-30T08:22:45;6.72;;;3.30;;
80411;SDS011;69749;42.684;23.360;2023-08-30T08:25:10;6.78;;;3.30;;
80411;SDS011;69749;42.684;23.360;2023-08-30T08:27:36;6.80;;;3.13;;
80411;SDS011;69749;42.684;23.360;2023-08-30T08:30:02;4.65;;;2.88;;
80411;SDS011;69749;42.684;23.360;2023-08-30T08:32:29;9.00;;;3.85;;
80411;SDS011;69749;42.684;23.360;2023-08-30T08:37:21;8.00;;;3.60;;
80411;SDS011;69749;42.684;23.360;2023-08-30T08:39:46;6.18;;;3.30;;
80411;SDS011;69749;42.684;23.360;2023-08-30T08:42:13;5.80;;;3.33;;
80411;SDS011;69749;42.684;23.360;2023-08-30T08:44:39;6.47;;;3.42;;
80411;SDS011;69749;42.684;23.360;2023-08-30T08:47:06;5.75;;;3.10;;
80411;SDS011;69749;42.684;23.360;2023-08-30T08:49:32;5.13;;;2.70;;
80411;SDS011;69749;42.684;23.360;2023-08-30T08:51:57;6.75;;;3.03;;
80411;SDS011;69749;42.684;23.360;2023-08-30T08:54:24;5.50;;;3.13;;
80411;SDS011;69749;42.684;23.360;2023-08-30T08:56:50;7.20;;;3.20;;
80411;SDS011;69749;42.684;23.360;2023-08-30T08:59:16;6.63;;;3.42;;
80411;SDS011;69749;42.684;23.360;2023-08-30T09:01:41;5.13;;;3.10;;
80411;SDS011;69749;42.684;23.360;2023-08-30T09:04:10;4.85;;;2.92;;
80411;SDS011;69749;42.684;23.360;2023-08-30T09:06:36;8.32;;;3.00;;
80411;SDS011;69749;42.684;23.360;2023-08-30T09:09:03;5.47;;;3.15;;
80411;SDS011;69749;42.684;23.360;2023-08-30T09:11:29;9.55;;;3.55;;
80411;SDS011;69749;42.684;23.360;2023-08-30T09:13:55;5.13;;;3.33;;
80411;SDS011;69749;42.684;23.360;2023-08-30T09:16:21;8.30;;;3.53;;
80411;SDS011;69749;42.684;23.360;2023-08-30T09:18:56;5.13;;;3.20;;
80411;SDS011;69749;42.684;23.360;2023-08-30T09:21:25;5.80;;;3.25;;
80411;SDS011;69749;42.684;23.360;2023-08-30T09:24:04;5.53;;;3.22;;
80411;SDS011;69749;42.684;23.360;2023-08-30T09:26:31;6.03;;;3.53;;
80411;SDS011;69749;42.684;23.360;2023-08-30T09:29:05;5.85;;;3.45;;
80411;SDS011;69749;42.684;23.360;2023-08-30T09:31:35;7.13;;;3.60;;
80411;SDS011;69749;42.684;23.360;2023-08-30T09:34:02;6.45;;;3.72;;
80411;SDS011;69749;42.684;23.360;2023-08-30T09:36:35;8.65;;;3.38;;
80411;SDS011;69749;42.684;23.360;2023-08-30T09:39:11;5.85;;;3.35;;
80411;SDS011;69749;42.684;23.360;2023-08-30T09:41:40;7.25;;;3.70;;
80411;SDS011;69749;42.684;23.360;2023-08-30T09:44:10;6.00;;;4.18;;
80411;SDS011;69749;42.684;23.360;2023-08-30T09:46:43;6.38;;;3.97;;
80411;SDS011;69749;42.684;23.360;2023-08-30T09:49:09;8.15;;;3.97;;
80411;SDS011;69749;42.684;23.360;2023-08-30T09:51:37;7.85;;;4.05;;
80411;SDS011;69749;42.684;23.360;2023-08-30T09:54:06;5.65;;;3.83;;
80411;SDS011;69749;42.684;23.360;2023-08-30T09:56:41;6.10;;;3.70;;
80411;SDS011;69749;42.684;23.360;2023-08-30T09:59:09;6.97;;;3.78;;
80411;SDS011;69749;42.684;23.360;2023-08-30T10:01:36;9.35;;;4.10;;
80411;SDS011;69749;42.684;23.360;2023-08-30T10:04:02;5.40;;;3.75;;
80411;SDS011;69749;42.684;23.360;2023-08-30T10:06:29;9.60;;;4.63;;
80411;SDS011;69749;42.684;23.360;2023-08-30T10:08:55;6.40;;;4.35;;
80411;SDS011;69749;42.684;23.360;2023-08-30T10:11:21;7.47;;;4.28;;
80411;SDS011;69749;42.684;23.360;2023-08-30T10:13:48;8.35;;;4.65;;
80411;SDS011;69749;42.684;23.360;2023-08-30T10:16:19;4.90;;;3.72;;
80411;SDS011;69749;42.684;23.360;2023-08-30T10:18:50;10.57;;;4.57;;
80411;SDS011;69749;42.684;23.360;2023-08-30T10:21:19;8.15;;;4.72;;
80411;SDS011;69749;42.684;23.360;2023-08-30T10:23:45;6.10;;;3.92;;
80411;SDS011;69749;42.684;23.360;2023-08-30T10:26:13;9.02;;;4.43;;
80411;SDS011;69749;42.684;23.360;2023-08-30T10:28:40;5.80;;;4.25;;
80411;SDS011;69749;42.684;23.360;2023-08-30T10:31:07;6.75;;;4.60;;
80411;SDS011;69749;42.684;23.360;2023-08-30T10:33:43;5.70;;;4.50;;
80411;SDS011;69749;42.684;23.360;2023-08-30T10:36:19;8.68;;;5.07;;
80411;SDS011;69749;42.684;23.360;2023-08-30T10:38:48;9.85;;;5.07;;
80411;SDS011;69749;42.684;23.360;2023-08-30T10:41:24;6.68;;;4.32;;
80411;SDS011;69749;42.684;23.360;2023-08-30T10:43:55;5.55;;;4.40;;
80411;SDS011;69749;42.684;23.360;2023-08-30T10:46:33;7.35;;;4.45;;
80411;SDS011;69749;42.684;23.360;2023-08-30T10:49:13;5.97;;;4.38;;
80411;SDS011;69749;42.684;23.360;2023-08-30T10:51:42;6.60;;;4.40;;
80411;SDS011;69749;42.684;23.360;2023-08-30T10:54:13;7.38;;;5.00;;
80411;SDS011;69749;42.684;23.360;2023-08-30T10:56:56;12.43;;;4.78;;
80411;SDS011;69749;42.684;23.360;2023-08-30T10:59:24;7.35;;;4.93;;
80411;SDS011;69749;42.684;23.360;2023-08-30T11:01:50;6.18;;;4.97;;
80411;SDS011;69749;42.684;23.360;2023-08-30T11:04:17;8.73;;;5.05;;
80411;SDS011;69749;42.684;23.360;2023-08-30T11:06:44;7.10;;;5.13;;
80411;SDS011;69749;42.684;23.360;2023-08-30T11:09:14;10.75;;;5.15;;
80411;SDS011;69749;42.684;23.360;2023-08-30T11:11:42;7.03;;;4.53;;
80411;SDS011;69749;42.684;23.360;2023-08-30T11:14:09;7.55;;;4.90;;
80411;SDS011;69749;42.684;23.360;2023-08-30T11:16:37;5.35;;;4.43;;
80411;SDS011;69749;42.684;23.360;2023-08-30T11:19:04;7.05;;;4.82;;
80411;SDS011;69749;42.684;23.360;2023-08-30T11:21:31;5.32;;;4.50;;
80411;SDS011;69749;42.684;23.360;2023-08-30T11:23:58;9.00;;;4.80;;
80411;SDS011;69749;42.684;23.360;2023-08-30T11:26:24;6.85;;;4.28;;
80411;SDS011;69749;42.684;23.360;2023-08-30T11:28:49;6.22;;;4.75;;
80411;SDS011;69749;42.684;23.360;2023-08-30T11:31:26;9.38;;;5.07;;
80411;SDS011;69749;42.684;23.360;2023-08-30T11:33:56;7.13;;;4.80;;
80411;SDS011;69749;42.684;23.360;2023-08-30T11:36:23;7.68;;;4.50;;
80411;SDS011;69749;42.684;23.360;2023-08-30T11:38:52;8.68;;;4.82;;
80411;SDS011;69749;42.684;23.360;2023-08-30T11:41:21;7.93;;;4.65;;
80411;SDS011;69749;42.684;23.360;2023-08-30T11:43:47;9.57;;;5.60;;
80411;SDS011;69749;42.684;23.360;2023-08-30T11:46:13;9.13;;;5.40;;
80411;SDS011;69749;42.684;23.360;2023-08-30T11:48:39;8.88;;;5.60;;
80411;SDS011;69749;42.684;23.360;2023-08-30T11:51:06;7.90;;;4.57;;
80411;SDS011;69749;42.684;23.360;2023-08-30T11:53:32;9.10;;;4.93;;
80411;SDS011;69749;42.684;23.360;2023-08-30T11:55:58;7.10;;;5.15;;
80411;SDS011;69749;42.684;23.360;2023-08-30T11:58:24;8.90;;;4.70;;
80411;SDS011;69749;42.684;23.360;2023-08-30T12:00:50;11.02;;;5.18;;
80411;SDS011;69749;42.684;23.360;2023-08-30T12:03:16;9.65;;;5.20;;
80411;SDS011;69749;42.684;23.360;2023-08-30T12:05:48;6.63;;;5.03;;
80411;SDS011;69749;42.684;23.360;2023-08-30T12:08:21;6.45;;;5.15;;
80411;SDS011;69749;42.684;23.360;2023-08-30T12:10:48;7.85;;;4.95;;
80411;SDS011;69749;42.684;23.360;2023-08-30T12:13:22;8.55;;;4.88;;
80411;SDS011;69749;42.684;23.360;2023-08-30T12:15:51;7.22;;;6.10;;
80411;SDS011;69749;42.684;23.360;2023-08-30T12:18:20;6.25;;;5.00;;
80411;SDS011;69749;42.684;23.360;2023-08-30T12:23:32;7.65;;;5.03;;
80411;SDS011;69749;42.684;23.360;2023-08-30T12:26:07;8.38;;;5.18;;
80411;SDS011;69749;42.684;23.360;2023-08-30T12:28:35;7.85;;;5.30;;
80411;SDS011;69749;42.684;23.360;2023-08-30T12:31:02;6.20;;;4.95;;
80411;SDS011;69749;42.684;23.360;2023-08-30T12:33:29;7.63;;;5.15;;
80411;SDS011;69749;42.684;23.360;2023-08-30T12:35:55;8.55;;;5.40;;
80411;SDS011;69749;42.684;23.360;2023-08-30T12:38:21;9.18;;;5.25;;
80411;SDS011;69749;42.684;23.360;2023-08-30T12:40:47;8.40;;;5.60;;
80411;SDS011;69749;42.684;23.360;2023-08-30T12:43:14;7.95;;;5.20;;
80411;SDS011;69749;42.684;23.360;2023-08-30T12:45:40;7.55;;;5.35;;
80411;SDS011;69749;42.684;23.360;2023-08-30T12:48:07;5.95;;;4.88;;
80411;SDS011;69749;42.684;23.360;2023-08-30T12:50:34;8.38;;;5.38;;
80411;SDS011;69749;42.684;23.360;2023-08-30T12:53:00;6.25;;;5.22;;
80411;SDS011;69749;42.684;23.360;2023-08-30T12:55:27;12.25;;;4.93;;
80411;SDS011;69749;42.684;23.360;2023-08-30T12:57:52;6.75;;;4.60;;
80411;SDS011;69749;42.684;23.360;2023-08-30T13:00:18;7.55;;;5.80;;
80411;SDS011;69749;42.684;23.360;2023-08-30T13:02:44;8.40;;;5.25;;
80411;SDS011;69749;42.684;23.360;2023-08-30T13:05:09;6.43;;;5.00;;
80411;SDS011;69749;42.684;23.360;2023-08-30T13:07:35;8.52;;;5.43;;
80411;SDS011;69749;42.684;23.360;2023-08-30T13:10:01;9.77;;;5.57;;
80411;SDS011;69749;42.684;23.360;2023-08-30T13:12:27;6.47;;;5.70;;
80411;SDS011;69749;42.684;23.360;2023-08-30T13:14:52;9.68;;;5.40;;
80411;SDS011;69749;42.684;23.360;2023-08-30T13:17:18;8.52;;;5.82;;
80411;SDS011;69749;42.684;23.360;2023-08-30T13:19:43;8.90;;;5.85;;
80411;SDS011;69749;42.684;23.360;2023-08-30T13:22:09;8.55;;;5.47;;
80411;SDS011;69749;42.684;23.360;2023-08-30T13:24:35;10.48;;;5.63;;
80411;SDS011;69749;42.684;23.360;2023-08-30T13:27:00;8.90;;;6.43;;
80411;SDS011;69749;42.684;23.360;2023-08-30T13:29:26;6.38;;;4.40;;
80411;SDS011;69749;42.684;23.360;2023-08-30T13:31:51;6.30;;;4.25;;
80411;SDS011;69749;42.684;23.360;2023-08-30T13:34:17;9.13;;;4.68;;
80411;SDS011;69749;42.684;23.360;2023-08-30T13:36:42;7.88;;;5.40;;
80411;SDS011;69749;42.684;23.360;2023-08-30T13:39:07;6.95;;;4.38;;
80411;SDS011;69749;42.684;23.360;2023-08-30T13:41:33;7.00;;;3.90;;
80411;SDS011;69749;42.684;23.360;2023-08-30T13:44:00;8.68;;;4.47;;
80411;SDS011;69749;42.684;23.360;2023-08-30T13:46:28;6.10;;;4.35;;
80411;SDS011;69749;42.684;23.360;2023-08-30T13:48:57;6.38;;;3.85;;
80411;SDS011;69749;42.684;23.360;2023-08-30T13:51:23;6.57;;;4.03;;
80411;SDS011;69749;42.684;23.360;2023-08-30T13:53:49;8.07;;;3.80;;
80411;SDS011;69749;42.684;23.360;2023-08-30T13:56:15;7.20;;;3.88;;
80411;SDS011;69749;42.684;23.360;2023-08-30T13:58:41;8.10;;;4.50;;
80411;SDS011;69749;42.684;23.360;2023-08-30T14:01:06;5.45;;;3.63;;
80411;SDS011;69749;42.684;23.360;2023-08-30T14:03:32;5.70;;;3.90;;
80411;SDS011;69749;42.684;23.360;2023-08-30T14:05:58;6.97;;;3.75;;
80411;SDS011;69749;42.684;23.360;2023-08-30T14:08:23;5.78;;;3.55;;
80411;SDS011;69749;42.684;23.360;2023-08-30T14:10:48;8.15;;;4.15;;
80411;SDS011;69749;42.684;23.360;2023-08-30T14:13:14;7.60;;;4.75;;
80411;SDS011;69749;42.684;23.360;2023-08-30T14:15:40;7.18;;;4.05;;
80411;SDS011;69749;42.684;23.360;2023-08-30T14:18:07;6.20;;;3.75;;
80411;SDS011;69749;42.684;23.360;2023-08-30T14:20:32;6.72;;;4.13;;
80411;SDS011;69749;42.684;23.360;2023-08-30T14:22:57;4.95;;;3.47;;
80411;SDS011;69749;42.684;23.360;2023-08-30T14:25:23;5.28;;;3.38;;
80411;SDS011;69749;42.684;23.360;2023-08-30T14:27:48;8.38;;;4.13;;
80411;SDS011;69749;42.684;23.360;2023-08-30T14:30:14;5.30;;;3.40;;
80411;SDS011;69749;42.684;23.360;2023-08-30T14:32:40;5.88;;;3.55;;
80411;SDS011;69749;42.684;23.360;2023-08-30T14:35:06;7.45;;;3.75;;
80411;SDS011;69749;42.684;23.360;2023-08-30T14:37:32;6.90;;;3.72;;
80411;SDS011;69749;42.684;23.360;2023-08-30T14:39:59;6.43;;;3.60;;
80411;SDS011;69749;42.684;23.360;2023-08-30T14:42:25;7.75;;;3.60;;
80411;SDS011;69749;42.684;23.360;2023-08-30T14:44:51;7.22;;;3.22;;
80411;SDS011;69749;42.684;23.360;2023-08-30T14:47:17;6.05;;;3.80;;
80411;SDS011;69749;42.684;23.360;2023-08-30T14:52:09;7.18;;;3.15;;
80411;SDS011;69749;42.684;23.360;2023-08-30T14:54:35;4.47;;;3.08;;
80411;SDS011;69749;42.684;23.360;2023-08-30T14:57:00;5.82;;;3.28;;
80411;SDS011;69749;42.684;23.360;2023-08-30T14:59:26;7.70;;;3.42;;
80411;SDS011;69749;42.684;23.360;2023-08-30T15:01:51;8.90;;;3.60;;
80411;SDS011;69749;42.684;23.360;2023-08-30T15:04:17;8.98;;;3.40;;
80411;SDS011;69749;42.684;23.360;2023-08-30T15:06:42;5.18;;;3.30;;